26PN weather

Leeds & Northrup Co. Heliport
North Wales, Pennsylvania, United States

Public forecast

Using degrees Fahrenheit for public forecast. Weather courtesy of forecast.io.

METAR (pilot weather report)

Closest report is Wings Field, 4.8 nm (8.9 km) S. Retrieved 2019/07/21 10:35 UTC (2 minutes ago):

KLOM 211035Z AUTO 28003KT 10SM CLR 27/24 A2985 RMK AO2 T02670240

TAF (pilot weather forecast)

Closest forecast is Northeast Philadelphia Airport, 14.7 nm (27.3 km) ESE. Retrieved 2019/07/21 06:24 UTC (4 hours ago):

TAF KPNE 210520Z 2106/2206 25005KT P6SM FEW050 FM211200 29007KT P6SM SCT120 FM212000 27010G17KT P6SM SCT040 FM212300 28008KT P6SM VCSH BKN040 FM220300 VRB04KT P6SM BKN040